Terminal Aerodrome Forecast
Issued by NWS

Home | Current Version | Previous Version | Text Only | Print | Product List | Glossary On
Versions: 1 2 3 4 5 6 7 8 9 10 11 12 13 14 15 16 17 18 19
000
FTUS44 KLZK 291143 RRA
TAFHOT
TAF
KHOT 291143Z 2912/3012 VRB02KT P6SM VCFG SCT035 BKN150
      TEMPO 2912/2913 5SM BR BKN002
     FM291400 VRB05KT P6SM SCT025 BKN050
     FM300100 VRB03KT P6SM SCT050 BKN120=

USA.gov is the U.S. government's official web portal to all federal, state and local government web resources and services.